createdAt,value
2023-02-22T00:01:47.419Z,109.95
2023-02-22T00:04:16.057Z,106.55
2023-02-22T00:06:42.599Z,106.53
2023-02-22T00:09:10.397Z,115.78
2023-02-22T00:11:38.597Z,103.38
2023-02-22T00:14:05.806Z,98.57
2023-02-22T00:16:32.398Z,101.85
2023-02-22T00:18:59.018Z,99.82
2023-02-22T00:21:25.687Z,94.53
2023-02-22T00:23:54.694Z,94.53
2023-02-22T00:26:23.481Z,94.57
2023-02-22T00:31:18.896Z,91.68
2023-02-22T00:33:45.801Z,99.93
2023-02-22T00:36:13.616Z,99.00
2023-02-22T00:38:41.229Z,97.57
2023-02-22T00:41:07.795Z,90.05
2023-02-22T00:43:34.834Z,90.40
2023-02-22T00:46:01.454Z,101.55
2023-02-22T00:48:28.558Z,89.00
2023-02-22T00:50:55.495Z,84.90
2023-02-22T00:53:24.307Z,102.25
2023-02-22T00:58:18.749Z,91.93
2023-02-22T01:00:45.623Z,98.20
2023-02-22T01:03:15.054Z,100.60
2023-02-22T01:05:41.954Z,100.13
2023-02-22T01:08:12.198Z,101.85
2023-02-22T01:10:39.546Z,100.05
2023-02-22T01:13:09.118Z,103.40
2023-02-22T01:15:37.651Z,104.03
2023-02-22T01:18:05.267Z,99.28
2023-02-22T01:20:32.505Z,100.05
2023-02-22T01:23:01.298Z,109.38
2023-02-22T01:27:56.807Z,100.65
2023-02-22T01:30:25.760Z,98.53
2023-02-22T01:32:52.992Z,97.20
2023-02-22T01:35:23.130Z,99.60
2023-02-22T01:37:49.653Z,94.95
2023-02-22T01:40:34.641Z,93.63
2023-02-22T01:43:15.532Z,91.97
2023-02-22T01:46:08.462Z,93.93
2023-02-22T01:48:47.417Z,97.70
2023-02-22T01:51:20.783Z,98.45
2023-02-22T01:54:03.793Z,96.40
2023-02-22T01:56:33.040Z,107.50
2023-02-22T01:59:02.833Z,106.10
2023-02-22T02:01:29.677Z,115.25
2023-02-22T02:04:00.065Z,115.10
2023-02-22T02:06:28.560Z,118.03
2023-02-22T02:09:05.088Z,114.72
2023-02-22T02:11:32.507Z,121.75
2023-02-22T02:13:59.729Z,127.28
2023-02-22T02:16:35.675Z,139.23
2023-02-22T02:19:03.370Z,135.95
2023-02-22T02:22:04.035Z,138.13
2023-02-22T02:24:50.395Z,155.02
2023-02-22T02:27:25.871Z,140.20
2023-02-22T02:30:13.289Z,146.50
2023-02-22T02:32:43.292Z,153.30
2023-02-22T02:35:34.525Z,160.05
2023-02-22T02:38:22.964Z,138.00
2023-02-22T02:40:58.722Z,146.10
2023-02-22T02:43:43.597Z,144.70
2023-02-22T02:46:21.474Z,162.65
2023-02-22T02:48:57.393Z,151.23
2023-02-22T02:51:28.028Z,156.32
2023-02-22T02:53:54.886Z,163.35
2023-02-22T02:56:23.503Z,160.45
2023-02-22T02:58:54.143Z,184.32
2023-02-22T03:01:44.799Z,166.10
2023-02-22T03:04:20.517Z,161.60
2023-02-22T03:06:57.047Z,151.85
2023-02-22T03:09:35.314Z,161.32
2023-02-22T03:12:39.931Z,170.82
2023-02-22T03:15:22.031Z,178.52
2023-02-22T03:17:56.965Z,201.98
2023-02-22T03:20:43.516Z,203.65
2023-02-22T03:23:21.041Z,168.75
2023-02-22T03:25:52.222Z,173.98
2023-02-22T03:28:20.472Z,169.85
2023-02-22T03:30:50.695Z,231.10
2023-02-22T03:33:39.795Z,189.23
2023-02-22T03:36:16.225Z,204.23
2023-02-22T03:38:44.361Z,250.95
2023-02-22T03:41:11.679Z,208.10
2023-02-22T03:43:41.722Z,219.45
2023-02-22T03:46:09.658Z,224.57
2023-02-22T03:48:44.147Z,273.90
2023-02-22T03:51:16.704Z,320.60
2023-02-22T03:53:48.179Z,266.48
2023-02-22T03:56:20.259Z,268.95
2023-02-22T03:58:50.233Z,238.35
2023-02-22T04:01:17.551Z,262.80
2023-02-22T04:03:44.618Z,257.27
2023-02-22T04:06:11.633Z,287.70
2023-02-22T04:08:38.167Z,276.10
2023-02-22T04:11:04.785Z,296.55
2023-02-22T04:13:31.351Z,247.10
2023-02-22T04:15:57.986Z,315.45
2023-02-22T04:18:24.504Z,338.40
2023-02-22T04:20:51.750Z,333.90
2023-02-22T04:23:18.367Z,339.90
2023-02-22T04:25:44.862Z,395.42
2023-02-22T04:28:11.657Z,362.83
2023-02-22T04:30:38.259Z,310.50
2023-02-22T04:33:04.839Z,326.05
2023-02-22T04:35:33.064Z,303.27
2023-02-22T04:38:01.614Z,271.05
2023-02-22T04:40:28.156Z,274.38
2023-02-22T04:42:54.817Z,252.13
2023-02-22T04:45:21.445Z,241.98
2023-02-22T04:47:48.005Z,197.65
2023-02-22T04:50:14.847Z,277.30
2023-02-22T04:52:41.390Z,255.60
2023-02-22T04:55:08.368Z,231.90
2023-02-22T04:57:34.888Z,310.00
2023-02-22T05:00:01.828Z,236.13
2023-02-22T05:02:28.550Z,286.55
2023-02-22T05:04:55.223Z,236.20
2023-02-22T05:07:21.938Z,252.90
2023-02-22T05:09:48.466Z,264.77
2023-02-22T05:12:15.268Z,278.25
2023-02-22T05:14:42.360Z,279.48
2023-02-22T05:17:09.023Z,227.15
2023-02-22T05:19:35.670Z,231.63
2023-02-22T05:22:02.237Z,268.15
2023-02-22T05:24:28.805Z,280.92
2023-02-22T05:26:55.392Z,247.65
2023-02-22T05:29:21.878Z,283.17
2023-02-22T05:31:48.508Z,229.60
2023-02-22T05:34:15.790Z,188.55
2023-02-22T05:36:42.669Z,204.25
2023-02-22T05:39:09.181Z,197.82
2023-02-22T05:41:35.728Z,200.77
2023-02-22T05:44:03.058Z,209.40
2023-02-22T05:46:29.639Z,195.88
2023-02-22T05:48:56.194Z,227.57
2023-02-22T05:51:23.272Z,145.60
2023-02-22T05:53:52.169Z,187.60
2023-02-22T05:56:26.470Z,173.68
2023-02-22T05:58:53.333Z,184.82
2023-02-22T06:01:20.759Z,198.75
2023-02-22T06:03:49.673Z,215.07
2023-02-22T06:08:43.332Z,166.77
2023-02-22T06:11:10.417Z,140.25
2023-02-22T06:13:37.022Z,155.98
2023-02-22T06:16:04.421Z,120.15
2023-02-22T06:18:31.308Z,103.60
2023-02-22T06:20:59.184Z,127.47
2023-02-22T06:23:26.865Z,133.57
2023-02-22T06:25:53.416Z,123.68
2023-02-22T06:28:19.914Z,122.72
2023-02-22T06:30:46.480Z,123.60
2023-02-22T06:33:13.041Z,124.45
2023-02-22T06:35:39.639Z,120.57
2023-02-22T06:38:06.276Z,102.03
2023-02-22T06:40:32.854Z,99.32
2023-02-22T06:43:00.001Z,93.53
2023-02-22T06:45:26.731Z,111.00
2023-02-22T06:47:53.322Z,101.00
2023-02-22T06:50:24.182Z,113.03
2023-02-22T06:52:53.056Z,106.30
2023-02-22T06:55:25.526Z,94.18
2023-02-22T06:57:52.347Z,89.93
2023-02-22T07:00:20.782Z,100.95
2023-02-22T07:02:50.855Z,109.50
2023-02-22T07:05:20.106Z,97.13
2023-02-22T07:07:48.029Z,101.75
2023-02-22T07:10:41.172Z,101.45
2023-02-22T07:13:08.725Z,110.53
2023-02-22T07:15:35.855Z,116.35
2023-02-22T07:18:02.443Z,98.72
2023-02-22T07:20:30.409Z,97.18
2023-02-22T07:22:56.935Z,89.70
2023-02-22T07:25:23.846Z,102.65
2023-02-22T07:27:52.381Z,91.65
2023-02-22T07:30:20.707Z,117.43
2023-02-22T07:32:47.315Z,99.10
2023-02-22T07:35:36.940Z,96.75
2023-02-22T07:38:08.397Z,97.60
2023-02-22T07:40:35.971Z,86.07
2023-02-22T07:43:15.150Z,83.93
2023-02-22T07:45:42.587Z,82.05
2023-02-22T07:48:09.324Z,84.75
2023-02-22T07:50:36.152Z,85.25
2023-02-22T07:53:05.360Z,69.32
2023-02-22T07:55:33.135Z,79.18
2023-02-22T07:58:02.040Z,74.13
2023-02-22T08:00:33.780Z,70.00
2023-02-22T08:03:02.284Z,78.72
2023-02-22T08:05:30.182Z,80.53
2023-02-22T08:07:56.820Z,92.75
2023-02-22T08:10:25.069Z,75.63
2023-02-22T08:12:52.152Z,85.88
2023-02-22T08:15:21.639Z,78.35
2023-02-22T08:17:48.238Z,70.50
2023-02-22T08:20:14.839Z,71.10
2023-02-22T08:22:44.510Z,64.00
2023-02-22T08:25:12.289Z,62.70
2023-02-22T08:27:39.258Z,59.53
2023-02-22T08:30:06.352Z,48.28
2023-02-22T08:32:33.531Z,53.10
2023-02-22T08:35:01.253Z,54.00
2023-02-22T08:37:28.122Z,49.92
2023-02-22T08:39:56.153Z,48.63
2023-02-22T08:42:22.891Z,47.83
2023-02-22T08:44:49.594Z,46.42
2023-02-22T08:47:16.105Z,48.85
2023-02-22T08:49:42.625Z,51.38
2023-02-22T08:52:09.447Z,52.03
2023-02-22T08:54:35.966Z,43.63
2023-02-22T08:57:02.502Z,48.55
2023-02-22T08:59:29.197Z,43.60
2023-02-22T09:01:55.761Z,42.05
2023-02-22T09:04:22.357Z,44.85
2023-02-22T09:06:52.014Z,41.88
2023-02-22T09:09:21.390Z,43.35
2023-02-22T09:11:50.990Z,43.95
2023-02-22T09:14:19.297Z,45.53
2023-02-22T09:16:45.959Z,45.85
2023-02-22T09:19:12.510Z,42.35
2023-02-22T09:21:40.335Z,42.08
2023-02-22T09:24:08.777Z,42.90
2023-02-22T09:26:42.756Z,44.28
2023-02-22T09:29:12.658Z,41.33
2023-02-22T09:31:40.486Z,42.42
2023-02-22T09:34:14.094Z,40.75
2023-02-22T09:36:43.987Z,46.40
2023-02-22T09:39:11.354Z,35.22
2023-02-22T09:42:09.439Z,38.92
2023-02-22T09:44:43.910Z,36.95
2023-02-22T09:47:18.312Z,39.78
2023-02-22T09:49:57.487Z,36.03
2023-02-22T09:52:32.441Z,37.53
2023-02-22T09:55:23.298Z,36.17
2023-02-22T09:57:51.634Z,34.67
2023-02-22T10:00:22.798Z,37.42
2023-02-22T10:03:08.876Z,33.80
2023-02-22T10:05:41.890Z,36.75
2023-02-22T10:08:14.268Z,32.88
2023-02-22T10:10:46.050Z,37.08
2023-02-22T10:13:48.659Z,33.00
2023-02-22T10:16:27.043Z,30.90
2023-02-22T10:19:31.636Z,35.20
2023-02-22T10:22:19.097Z,32.10
2023-02-22T10:24:57.198Z,35.53
2023-02-22T10:28:00.374Z,35.85
2023-02-22T10:30:30.898Z,29.35
2023-02-22T10:33:17.007Z,34.13
2023-02-22T10:35:46.853Z,33.65
2023-02-22T10:38:18.220Z,33.42
2023-02-22T10:41:23.184Z,34.90
2023-02-22T10:43:50.422Z,34.20
2023-02-22T10:46:19.519Z,32.40
2023-02-22T10:48:50.835Z,34.15
2023-02-22T10:51:17.430Z,34.03
2023-02-22T10:53:44.406Z,33.70
2023-02-22T10:56:23.113Z,32.33
2023-02-22T10:58:59.595Z,35.55
2023-02-22T11:01:32.115Z,33.40
2023-02-22T11:04:15.401Z,33.47
2023-02-22T11:06:44.678Z,35.03
2023-02-22T11:09:18.425Z,35.67
2023-02-22T11:11:47.288Z,30.92
2023-02-22T11:14:26.641Z,32.00
2023-02-22T11:16:54.455Z,41.33
2023-02-22T11:19:25.858Z,38.53
2023-02-22T11:21:56.277Z,33.95
2023-02-22T11:24:24.244Z,38.95
2023-02-22T11:26:54.215Z,38.03
2023-02-22T11:29:22.338Z,35.15
2023-02-22T11:31:52.246Z,32.63
2023-02-22T11:34:38.161Z,34.38
2023-02-22T11:37:29.387Z,34.10
2023-02-22T11:40:19.843Z,31.63
2023-02-22T11:42:47.042Z,37.55
2023-02-22T11:45:21.181Z,37.53
2023-02-22T11:47:53.664Z,38.40
2023-02-22T11:50:46.822Z,42.63
2023-02-22T11:53:22.178Z,35.63
2023-02-22T11:56:08.035Z,40.45
2023-02-22T11:58:54.289Z,46.15
2023-02-22T12:01:28.480Z,32.08
2023-02-22T12:04:15.834Z,37.60
2023-02-22T12:07:08.356Z,36.80
2023-02-22T12:09:53.037Z,35.38
2023-02-22T12:12:27.948Z,36.45
2023-02-22T12:15:05.990Z,40.67
2023-02-22T12:17:48.235Z,34.50
2023-02-22T12:23:00.818Z,41.72
2023-02-22T12:25:33.359Z,41.13
2023-02-22T12:28:24.656Z,39.03
2023-02-22T12:31:20.499Z,35.70
2023-02-22T12:33:54.262Z,38.58
2023-02-22T12:36:25.378Z,37.58
2023-02-22T12:38:58.335Z,38.03
2023-02-22T12:41:33.968Z,36.88
2023-02-22T12:44:05.468Z,39.20
2023-02-22T12:46:44.859Z,39.53
2023-02-22T12:49:19.512Z,36.17
2023-02-22T12:51:52.753Z,38.65
2023-02-22T12:54:26.066Z,35.88
2023-02-22T12:57:17.591Z,38.78
2023-02-22T12:59:53.833Z,34.45
2023-02-22T13:03:01.209Z,40.08
2023-02-22T13:05:33.480Z,36.08
2023-02-22T13:08:29.132Z,35.28
2023-02-22T13:11:18.229Z,35.90
2023-02-22T13:14:09.276Z,34.75
2023-02-22T13:16:52.634Z,41.13
2023-02-22T13:19:45.318Z,34.78
2023-02-22T13:22:29.841Z,44.30
2023-02-22T13:25:09.698Z,31.27
2023-02-22T13:27:43.847Z,35.55
2023-02-22T13:30:18.542Z,50.03
2023-02-22T13:33:25.969Z,39.03
2023-02-22T13:35:55.573Z,40.15
2023-02-22T13:38:33.968Z,40.50
2023-02-22T13:41:09.578Z,36.50
2023-02-22T13:43:55.015Z,35.00
2023-02-22T13:46:40.304Z,38.53
2023-02-22T13:49:12.643Z,35.70
2023-02-22T13:51:53.739Z,43.83
2023-02-22T13:54:34.286Z,34.40
2023-02-22T13:57:03.052Z,40.60
2023-02-22T13:59:31.506Z,40.90
2023-02-22T14:01:59.271Z,36.50
2023-02-22T14:04:28.836Z,34.47
2023-02-22T14:06:56.603Z,36.05
2023-02-22T14:09:51.888Z,38.67
2023-02-22T14:12:30.420Z,37.92
2023-02-22T14:15:29.745Z,36.20
2023-02-22T14:17:56.713Z,41.78
2023-02-22T14:20:36.100Z,37.33
2023-02-22T14:23:24.571Z,38.05
2023-02-22T14:25:51.599Z,40.92
2023-02-22T14:28:41.913Z,44.38
2023-02-22T14:31:15.473Z,45.22
2023-02-22T14:34:02.022Z,41.00
2023-02-22T14:36:30.539Z,41.30
2023-02-22T14:39:06.817Z,44.13
2023-02-22T14:41:33.571Z,42.55
2023-02-22T14:44:03.926Z,44.13
2023-02-22T14:46:33.468Z,49.95
2023-02-22T14:49:04.322Z,47.53
2023-02-22T14:51:42.829Z,48.33
2023-02-22T14:54:25.721Z,48.65
2023-02-22T14:57:14.955Z,49.13
2023-02-22T14:59:51.040Z,49.65
2023-02-22T15:02:19.599Z,50.65
2023-02-22T15:07:27.323Z,59.45
2023-02-22T15:10:17.634Z,60.97
2023-02-22T15:12:52.248Z,63.83
2023-02-22T15:15:21.970Z,68.80
2023-02-22T15:17:58.483Z,74.25
2023-02-22T15:20:26.050Z,70.90
2023-02-22T15:35:59.553Z,84.80
2023-02-22T15:38:30.365Z,84.13
2023-02-22T15:41:04.845Z,80.85
2023-02-22T15:43:32.653Z,79.45
2023-02-22T15:45:59.849Z,78.93
2023-02-22T15:48:27.224Z,84.78
2023-02-22T15:51:10.594Z,91.43
2023-02-22T15:53:44.496Z,91.45
2023-02-22T15:56:35.311Z,82.72
2023-02-22T15:59:18.387Z,84.85
2023-02-22T16:01:46.702Z,89.82
2023-02-22T16:04:21.877Z,87.75
2023-02-22T16:06:49.194Z,89.35
2023-02-22T16:09:17.483Z,88.65
2023-02-22T16:11:45.928Z,80.80
2023-02-22T16:14:40.772Z,90.50
2023-02-22T16:17:35.318Z,89.03
2023-02-22T16:20:20.521Z,86.05
2023-02-22T16:22:51.372Z,81.93
2023-02-22T16:25:17.999Z,76.22
2023-02-22T16:28:01.527Z,84.32
2023-02-22T16:30:34.504Z,89.70
2023-02-22T16:33:05.559Z,76.00
2023-02-22T16:35:35.356Z,72.88
2023-02-22T16:38:07.582Z,76.88
2023-02-22T16:40:37.982Z,73.00
2023-02-22T16:43:12.276Z,71.03
2023-02-22T16:45:41.293Z,69.78
2023-02-22T16:48:15.848Z,70.72
2023-02-22T16:50:42.461Z,64.18
2023-02-22T16:53:09.155Z,71.90
2023-02-22T16:55:36.653Z,69.20
2023-02-22T16:58:04.206Z,62.95
2023-02-22T17:00:34.621Z,67.75
2023-02-22T17:03:03.957Z,68.05
2023-02-22T17:05:31.901Z,65.68
2023-02-22T17:07:58.549Z,75.68
2023-02-22T17:10:26.114Z,60.50
2023-02-22T17:12:53.389Z,61.88
2023-02-22T17:15:28.221Z,61.60
2023-02-22T17:17:55.902Z,61.53
2023-02-22T17:20:32.659Z,70.10
2023-02-22T17:23:01.184Z,63.72
2023-02-22T17:25:31.361Z,66.25
2023-02-22T17:27:57.881Z,63.67
2023-02-22T17:30:24.653Z,65.47
2023-02-22T17:32:52.264Z,64.30
2023-02-22T17:35:20.632Z,74.32
2023-02-22T17:37:48.043Z,63.38
2023-02-22T17:40:14.944Z,70.75
2023-02-22T17:42:42.891Z,68.75
2023-02-22T17:45:10.384Z,68.63
2023-02-22T17:47:36.989Z,80.95
2023-02-22T17:50:03.524Z,76.35
2023-02-22T17:52:30.241Z,65.93
2023-02-22T17:54:56.797Z,70.10
2023-02-22T17:57:23.343Z,76.00
2023-02-22T17:59:50.262Z,76.45
2023-02-22T18:02:16.872Z,81.95
2023-02-22T18:04:43.470Z,81.80
2023-02-22T18:07:09.976Z,85.18
2023-02-22T18:09:36.662Z,85.38
2023-02-22T18:12:03.318Z,87.03
2023-02-22T18:14:29.882Z,82.15
2023-02-22T18:16:56.406Z,84.93
2023-02-22T18:19:23.433Z,90.05
2023-02-22T18:21:50.137Z,89.30
2023-02-22T18:24:17.362Z,88.15
2023-02-22T18:26:43.924Z,89.65
2023-02-22T18:29:12.336Z,88.15
2023-02-22T18:31:38.902Z,85.72
2023-02-22T18:34:05.476Z,85.65
2023-02-22T18:36:32.455Z,89.28
2023-02-22T18:38:59.038Z,84.88
2023-02-22T18:41:25.796Z,86.95
2023-02-22T18:43:55.172Z,88.63
2023-02-22T18:46:23.460Z,83.78
2023-02-22T18:48:53.275Z,86.47
2023-02-22T18:51:19.854Z,92.82
2023-02-22T18:53:48.001Z,88.60
2023-02-22T18:56:17.841Z,92.75
2023-02-22T18:58:45.046Z,99.85
2023-02-22T19:01:17.206Z,81.32
2023-02-22T19:03:47.133Z,86.10
2023-02-22T19:06:14.537Z,77.88
2023-02-22T19:08:42.875Z,93.70
2023-02-22T19:11:21.644Z,81.65
2023-02-22T19:13:50.000Z,85.95
2023-02-22T19:16:21.812Z,84.32
2023-02-22T19:18:50.989Z,88.15
2023-02-22T19:21:18.307Z,86.03
2023-02-22T19:23:48.762Z,88.82
2023-02-22T19:26:20.846Z,93.88
2023-02-22T19:28:48.252Z,84.70
2023-02-22T19:31:21.458Z,83.00
2023-02-22T19:33:52.127Z,84.05
2023-02-22T19:36:19.910Z,90.25
2023-02-22T19:38:46.737Z,102.03
2023-02-22T19:41:17.744Z,92.40
2023-02-22T19:43:45.505Z,96.90
2023-02-22T19:46:12.513Z,97.07
2023-02-22T19:48:39.348Z,98.95
2023-02-22T19:51:08.522Z,109.20
2023-02-22T19:53:35.668Z,99.93
2023-02-22T19:56:09.920Z,103.63
2023-02-22T19:58:37.969Z,97.32
2023-02-22T20:01:15.353Z,107.93
2023-02-22T20:03:42.781Z,102.90
2023-02-22T20:06:11.523Z,109.95
2023-02-22T20:08:42.341Z,105.22
2023-02-22T20:11:10.520Z,120.93
2023-02-22T20:13:38.113Z,122.43
2023-02-22T20:16:05.032Z,101.97
2023-02-22T20:18:31.560Z,113.65
2023-02-22T20:20:58.057Z,114.65
2023-02-22T20:23:24.650Z,122.32
2023-02-22T20:25:55.579Z,114.22
2023-02-22T20:28:23.281Z,116.53
2023-02-22T20:30:51.572Z,115.50
2023-02-22T20:33:19.428Z,112.85
2023-02-22T20:35:46.758Z,112.13
2023-02-22T20:38:14.438Z,123.78
2023-02-22T20:40:42.314Z,122.30
2023-02-22T20:43:09.711Z,118.28
2023-02-22T20:45:37.568Z,119.70
2023-02-22T20:48:04.429Z,126.47
2023-02-22T20:50:31.775Z,125.72
2023-02-22T20:52:58.865Z,125.97
2023-02-22T20:55:25.860Z,115.05
2023-02-22T20:57:52.458Z,124.28
2023-02-22T21:00:19.130Z,124.97
2023-02-22T21:02:46.769Z,126.47
2023-02-22T21:05:13.904Z,120.07
2023-02-22T21:07:40.764Z,130.57
2023-02-22T21:10:07.433Z,133.07
2023-02-22T21:12:35.011Z,133.65
2023-02-22T21:15:01.553Z,120.32
2023-02-22T21:17:30.867Z,122.85
2023-02-22T21:19:58.384Z,132.93
2023-02-22T21:22:25.287Z,130.73
2023-02-22T21:24:52.129Z,128.38
2023-02-22T21:27:18.900Z,130.07
2023-02-22T21:29:45.474Z,130.80
2023-02-22T21:32:13.759Z,135.82
2023-02-22T21:34:40.532Z,128.73
2023-02-22T21:37:08.336Z,130.60
2023-02-22T21:39:35.474Z,130.52
2023-02-22T21:42:02.311Z,139.25
2023-02-22T21:44:29.655Z,153.75
2023-02-22T21:46:56.398Z,132.95
2023-02-22T21:49:23.282Z,136.10
2023-02-22T21:51:51.609Z,130.07
2023-02-22T21:54:18.667Z,135.93
2023-02-22T21:56:45.244Z,128.25
2023-02-22T21:59:14.753Z,141.77
2023-02-22T22:01:49.945Z,139.60
2023-02-22T22:04:21.563Z,147.07
2023-02-22T22:06:50.874Z,136.35
2023-02-22T22:09:21.916Z,142.05
2023-02-22T22:11:51.036Z,136.77
2023-02-22T22:14:23.386Z,135.82
2023-02-22T22:16:51.673Z,135.43
2023-02-22T22:19:18.461Z,145.70
2023-02-22T22:21:46.852Z,142.82
2023-02-22T22:24:13.451Z,135.75
2023-02-22T22:26:40.313Z,131.90
2023-02-22T22:29:10.396Z,146.38
2023-02-22T22:31:37.576Z,144.27
2023-02-22T22:34:04.153Z,138.70
2023-02-22T22:36:30.639Z,141.23
2023-02-22T22:39:00.964Z,142.13
2023-02-22T22:41:30.280Z,144.90
2023-02-22T22:43:56.801Z,143.07
2023-02-22T22:46:23.475Z,143.65
2023-02-22T22:48:50.060Z,144.77
2023-02-22T22:51:20.015Z,133.93
2023-02-22T22:53:48.164Z,161.07
2023-02-22T22:56:18.587Z,148.63
2023-02-22T22:58:53.897Z,146.23
2023-02-22T23:01:27.034Z,141.55
2023-02-22T23:04:02.492Z,147.02
2023-02-22T23:06:33.126Z,144.77
2023-02-22T23:09:11.816Z,141.80
2023-02-22T23:11:46.175Z,144.73
2023-02-22T23:14:14.959Z,138.88
2023-02-22T23:16:42.661Z,140.05
2023-02-22T23:19:09.323Z,146.75
2023-02-22T23:21:36.262Z,135.65
2023-02-22T23:24:06.361Z,136.25
2023-02-22T23:26:34.042Z,141.73
2023-02-22T23:29:01.000Z,134.10
2023-02-22T23:31:32.139Z,143.20
2023-02-22T23:33:59.132Z,141.15
2023-02-22T23:36:26.929Z,142.55
2023-02-22T23:38:54.268Z,135.10
2023-02-22T23:41:21.114Z,139.07
2023-02-22T23:43:47.773Z,144.07
2023-02-22T23:46:18.567Z,144.70
2023-02-22T23:48:51.022Z,141.13
2023-02-22T23:51:20.630Z,156.98
2023-02-22T23:53:48.824Z,146.82
2023-02-22T23:56:17.888Z,141.73
2023-02-22T23:58:47.115Z,156.27
